createdAt,value
2023-01-28T00:04:06.355Z,21.10
2023-01-28T00:11:44.749Z,20.90
2023-01-28T00:15:35.580Z,21.70
2023-01-28T00:31:09.898Z,21.70
2023-01-28T00:34:58.886Z,20.80
2023-01-28T00:38:47.915Z,21.60
2023-01-28T00:42:37.130Z,20.10
2023-01-28T00:46:26.263Z,20.10
2023-01-28T00:50:15.629Z,18.40
2023-01-28T00:54:04.800Z,19.50
2023-01-28T00:57:53.829Z,18.70
2023-01-28T01:01:52.251Z,19.00
2023-01-28T01:05:43.825Z,19.80
2023-01-28T01:10:19.056Z,20.00
2023-01-28T01:14:06.647Z,20.00
2023-01-28T01:21:49.992Z,19.80
2023-01-28T01:25:38.965Z,18.90
2023-01-28T01:29:27.904Z,18.20
2023-01-28T01:33:16.804Z,20.70
2023-01-28T01:41:01.044Z,19.20
2023-01-28T01:44:48.541Z,21.00
2023-01-28T01:48:39.436Z,19.70
2023-01-28T01:52:28.534Z,19.80
2023-01-28T02:11:47.247Z,21.20
2023-01-28T02:15:38.905Z,20.40
2023-01-28T02:19:28.138Z,20.00
2023-01-28T02:23:19.367Z,19.80
2023-01-28T02:27:09.184Z,19.80
2023-01-28T02:39:13.468Z,21.20
2023-01-28T02:43:00.879Z,21.20
2023-01-28T02:46:57.394Z,19.50
2023-01-28T02:50:50.016Z,20.20
2023-01-28T02:59:27.870Z,22.20
2023-01-28T03:03:33.985Z,21.30
2023-01-28T03:11:15.984Z,21.10
2023-01-28T03:15:03.222Z,20.70
2023-01-28T03:18:56.583Z,21.20
2023-01-28T03:22:43.912Z,19.70
2023-01-28T03:26:31.344Z,20.30
2023-01-28T03:30:18.755Z,21.80
2023-01-28T03:34:06.169Z,21.20
2023-01-28T03:37:55.165Z,20.90
2023-01-28T03:41:54.098Z,20.40
2023-01-28T03:45:43.569Z,21.00
2023-01-28T03:49:33.027Z,21.30
2023-01-28T03:53:22.916Z,19.50
2023-01-28T03:57:12.884Z,20.00
2023-01-28T04:01:02.189Z,20.50
2023-01-28T04:04:52.198Z,20.10
2023-01-28T04:08:33.611Z,19.80
2023-01-28T04:12:23.539Z,20.40
2023-01-28T04:16:14.281Z,19.10
2023-01-28T04:23:32.821Z,20.50
2023-01-28T04:27:21.900Z,20.80
2023-01-28T04:31:11.284Z,22.20
2023-01-28T04:35:03.496Z,20.90
2023-01-28T04:58:36.432Z,23.50
2023-01-28T05:02:25.593Z,22.50
2023-01-28T05:06:14.729Z,24.50
2023-01-28T05:10:03.693Z,20.50
2023-01-28T05:13:53.609Z,22.50
2023-01-28T05:17:41.442Z,22.10
2023-01-28T05:21:31.441Z,22.10
2023-01-28T05:25:19.963Z,19.70
2023-01-28T05:29:09.579Z,22.60
2023-01-28T05:32:56.506Z,21.50
2023-01-28T05:36:45.784Z,23.80
2023-01-28T05:40:35.365Z,23.80
2023-01-28T05:44:24.944Z,23.60
2023-01-28T05:48:19.784Z,23.80
2023-01-28T05:52:09.083Z,23.80
2023-01-28T05:55:58.023Z,23.80
2023-01-28T05:59:46.738Z,26.50
2023-01-28T06:03:36.020Z,23.40
2023-01-28T06:07:25.168Z,24.30
2023-01-28T06:11:13.110Z,24.40
2023-01-28T06:40:57.566Z,26.10
2023-01-28T06:44:07.747Z,25.60
2023-01-28T06:47:35.080Z,24.90
2023-01-28T06:51:22.713Z,24.80
2023-01-28T06:55:10.448Z,23.80
2023-01-28T06:58:20.444Z,25.00
2023-01-28T07:02:08.958Z,26.90
2023-01-28T07:37:43.004Z,25.80
2023-01-28T07:41:32.077Z,24.90
2023-01-28T07:44:37.130Z,24.40
2023-01-28T07:48:26.029Z,24.60
2023-01-28T07:51:50.571Z,25.70
2023-01-28T07:55:31.543Z,25.20
2023-01-28T07:59:21.070Z,23.90
2023-01-28T08:02:58.053Z,23.30
2023-01-28T08:06:29.370Z,22.60
2023-01-28T08:09:38.370Z,21.90
2023-01-28T08:12:52.328Z,23.50
2023-01-28T08:16:43.303Z,23.40
2023-01-28T08:20:22.344Z,21.60
2023-01-28T08:23:42.868Z,21.50
2023-01-28T08:26:51.705Z,21.00
2023-01-28T08:30:40.912Z,20.40
2023-01-28T08:33:34.766Z,22.20
2023-01-28T08:36:16.135Z,21.20
2023-01-28T08:39:49.740Z,21.00
2023-01-28T08:43:38.561Z,22.10
2023-01-28T08:46:50.052Z,20.80
2023-01-28T08:50:40.050Z,22.10
2023-01-28T08:54:17.042Z,21.90
2023-01-28T08:57:26.589Z,22.10
2023-01-28T09:00:31.536Z,21.50
2023-01-28T09:04:01.749Z,22.00
2023-01-28T09:07:49.501Z,19.40
2023-01-28T09:11:17.054Z,22.90
2023-01-28T09:22:48.433Z,21.80
2023-01-28T09:26:12.500Z,21.60
2023-01-28T09:30:00.935Z,22.80
2023-01-28T09:33:52.995Z,21.00
2023-01-28T09:52:29.913Z,21.30
2023-01-28T09:56:07.081Z,20.60
2023-01-28T09:59:15.927Z,20.90
2023-01-28T10:03:11.438Z,20.80
2023-01-28T10:06:31.886Z,19.20
2023-01-28T10:10:06.517Z,20.80
2023-01-28T10:13:52.833Z,23.60
2023-01-28T10:25:07.076Z,21.90
2023-01-28T10:28:10.674Z,21.40
2023-01-28T10:31:01.784Z,21.90
2023-01-28T10:34:23.325Z,21.10
2023-01-28T10:37:52.315Z,24.60
2023-01-28T10:41:55.742Z,39.00
2023-01-28T10:45:55.709Z,28.20
2023-01-28T10:49:32.695Z,20.70
2023-01-28T10:52:56.628Z,21.50
2023-01-28T10:56:43.640Z,21.50
2023-01-28T10:59:34.791Z,20.50
2023-01-28T11:02:29.688Z,21.00
2023-01-28T11:06:01.766Z,18.60
2023-01-28T11:09:31.621Z,20.00
2023-01-28T11:13:22.280Z,19.90
2023-01-28T11:16:21.902Z,19.90
2023-01-28T11:19:52.100Z,20.70
2023-01-28T11:23:38.611Z,21.10
2023-01-28T11:27:08.568Z,20.70
2023-01-28T11:30:47.834Z,25.40
2023-01-28T11:41:50.136Z,22.10
2023-01-28T11:45:20.940Z,28.70
2023-01-28T12:04:48.922Z,22.80
2023-01-28T12:08:25.807Z,25.70
2023-01-28T12:12:34.435Z,26.30
2023-01-28T12:28:07.966Z,24.30
2023-01-28T12:31:45.808Z,24.60
2023-01-28T12:34:57.376Z,24.90
2023-01-28T12:38:56.583Z,24.90
2023-01-28T12:54:37.051Z,26.00
2023-01-28T13:01:15.274Z,21.00
2023-01-28T13:05:14.958Z,22.70
2023-01-28T13:16:55.641Z,26.20
2023-01-28T13:20:07.015Z,26.50
2023-01-28T13:24:02.141Z,30.40
2023-01-28T13:27:54.305Z,26.90
2023-01-28T13:31:26.848Z,34.70
2023-01-28T13:34:55.317Z,28.40
2023-01-28T13:50:29.935Z,52.90
2023-01-28T13:54:24.863Z,36.10
2023-01-28T13:58:18.542Z,44.70
2023-01-28T14:27:26.263Z,23.50
2023-01-28T14:30:55.136Z,24.40
2023-01-28T14:34:53.642Z,23.40
2023-01-28T14:38:31.526Z,21.40
2023-01-28T15:06:01.163Z,27.10
2023-01-28T15:09:33.225Z,26.80
2023-01-28T15:13:19.801Z,26.70
2023-01-28T15:17:07.876Z,25.90
2023-01-28T15:20:47.088Z,30.70
2023-01-28T15:24:17.203Z,26.80
2023-01-28T15:35:51.651Z,29.50
2023-01-28T15:39:16.801Z,30.50
2023-01-28T15:43:06.164Z,52.90
2023-01-28T15:46:55.320Z,42.00
2023-01-28T15:50:35.485Z,33.70
2023-01-28T16:02:46.483Z,33.30
2023-01-28T16:06:35.655Z,36.50
2023-01-28T16:14:21.883Z,34.90
2023-01-28T16:18:16.662Z,31.20
2023-01-28T16:22:05.728Z,35.50
2023-01-28T16:25:49.667Z,40.60
2023-01-28T16:29:38.904Z,48.70
2023-01-28T16:41:32.729Z,55.50
2023-01-28T16:45:21.774Z,41.80
2023-01-28T16:49:10.922Z,57.60
2023-01-28T16:52:59.881Z,49.20
2023-01-28T16:56:57.927Z,44.00
2023-01-28T17:00:48.155Z,43.60
2023-01-28T17:04:26.086Z,46.50
2023-01-28T17:07:30.453Z,75.20
2023-01-28T17:11:09.911Z,56.30
2023-01-28T17:14:52.666Z,51.20
2023-01-28T17:18:43.193Z,53.70
2023-01-28T17:22:33.316Z,51.20
2023-01-28T17:26:21.155Z,51.70
2023-01-28T17:49:52.635Z,103.50
2023-01-28T17:53:40.352Z,74.60
2023-01-28T17:57:28.158Z,64.10
2023-01-28T18:09:19.697Z,70.00
2023-01-28T18:13:08.903Z,51.30
2023-01-28T18:16:58.222Z,45.80
2023-01-28T18:20:38.460Z,63.60
2023-01-28T18:24:27.591Z,58.70
2023-01-28T18:28:17.833Z,62.20
2023-01-28T18:32:07.056Z,47.80
2023-01-28T18:36:23.682Z,53.90
2023-01-28T18:40:12.771Z,67.40
2023-01-28T18:44:01.814Z,70.30
2023-01-28T18:47:50.845Z,56.00
2023-01-28T18:51:39.270Z,57.60
2023-01-28T18:55:28.378Z,56.70
2023-01-28T18:59:17.487Z,50.20
2023-01-28T19:26:09.088Z,67.70
2023-01-28T19:29:43.256Z,57.30
2023-01-28T19:33:32.543Z,57.00
2023-01-28T19:37:11.984Z,60.10
2023-01-28T19:40:42.809Z,61.90
2023-01-28T19:44:32.265Z,57.80
2023-01-28T19:48:22.478Z,64.50
2023-01-28T19:52:10.299Z,63.60
2023-01-28T20:07:32.164Z,69.00
2023-01-28T20:11:21.203Z,57.50
2023-01-28T20:14:50.655Z,56.80
2023-01-28T20:18:32.718Z,51.30
2023-01-28T20:22:21.968Z,49.10
2023-01-28T20:26:11.192Z,47.20
2023-01-28T20:45:37.652Z,56.20
2023-01-28T20:49:28.163Z,56.30
2023-01-28T20:56:46.239Z,52.70
2023-01-28T21:00:35.466Z,53.80
2023-01-28T21:04:25.200Z,57.80
2023-01-28T21:08:07.625Z,54.80
2023-01-28T21:11:58.884Z,56.50
2023-01-28T21:15:48.155Z,56.40
2023-01-28T21:19:37.409Z,61.40
2023-01-28T21:23:26.639Z,62.20
2023-01-28T21:27:17.277Z,63.40
2023-01-28T21:58:02.379Z,65.60
2023-01-28T22:01:51.712Z,67.40
2023-01-28T22:05:33.270Z,71.70
2023-01-28T22:09:24.199Z,67.30
2023-01-28T22:13:14.845Z,60.40
2023-01-28T22:17:04.224Z,66.40
2023-01-28T22:20:53.966Z,75.50
2023-01-28T22:24:44.138Z,67.60
2023-01-28T22:44:29.329Z,57.80
2023-01-28T22:48:16.822Z,48.60
2023-01-28T22:52:04.635Z,46.90
2023-01-28T22:55:53.432Z,44.10
2023-01-28T23:07:43.652Z,36.50
2023-01-28T23:11:32.635Z,29.20
2023-01-28T23:15:13.018Z,23.20
2023-01-28T23:19:01.971Z,21.20
2023-01-28T23:22:52.845Z,16.70
2023-01-28T23:26:43.256Z,17.00
2023-01-28T23:30:31.131Z,17.70
2023-01-28T23:34:20.467Z,15.90
2023-01-28T23:38:10.690Z,16.80
2023-01-28T23:41:59.666Z,17.60
